LIBD Airport Information

Runway Information
Runway 07 Length 9843 ft width 148 ft
Elevation 176 ft Threshold 1234 ft Heading 67
Runway 25 Length 9843 ft Width 148 ft
Elevation 108 ft Threshold ft Heading 247
Runway 12 Length 512 ft width 164 ft
Elevation 108 ft Threshold ft Heading 123
Runway 30 Length 512 ft Width 164 ft
Elevation 108 ft Threshold ft Heading 303
Airport Frequencies
Type APP Name APP Frequency 119.5 MHZ
Type TWR Name TWR Frequency 118.3 MHZ
Airport Navaids
Type VOR-DME Name Bari Frequency 116400 KHZ
Airport Weather Information & NOTAM
ADDS - METARS form results

(0519 UTC 06 December 2022)
Data provider http://aviationweather.gov/metar/data/
 
METAR text: LIBD 060450Z 18003KT CAVOK 10/09 Q1017
Conditions at: LIBD (BARI/PALESE MACC, IT) observed 0450 UTC 06 December 2022
Temperature: 10.0°C (50°F)
Dewpoint: 9.0°C (48°F) [RH = 93%]
Pressure (altimeter): 30.03 inches Hg (1017.0 mb)
Winds: from the S (180 degrees) at 3 MPH (3 knots; 1.5 m/s)
Visibility: 6 or more miles (10+ km)
Ceiling: ceiling and visibility are OK
Clouds: unknown
Weather: no significant weather observed at this time

METAR text: LIBD 060420Z 19003KT CAVOK 09/09 Q1017
Conditions at: LIBD (BARI/PALESE MACC, IT) observed 0420 UTC 06 December 2022
Temperature: 9.0°C (48°F)
Dewpoint: 9.0°C (48°F) [RH = 100%]
Pressure (altimeter): 30.03 inches Hg (1017.0 mb)
Winds: from the S (190 degrees) at 3 MPH (3 knots; 1.5 m/s)
Visibility: 6 or more miles (10+ km)
Ceiling: ceiling and visibility are OK
Clouds: unknown
Weather: no significant weather observed at this time

Forecast for: LIBD (BARI/PALESE MACC, IT)
Text: TAF LIBD 052300Z 0600/0624 20007KT CAVOK
Forecast period: 0000 UTC 06 December 2022 to 0000 UTC 07 December 2022
Forecast type: FROM: standard forecast or significant change
Winds: from the SSW (200 degrees) at 8 MPH (7 knots; 3.6 m/s)
Visibility: 6 or more miles (10+ km)
Ceiling: unknown
Clouds: missing
Weather: NSW  (no significant weather)